sensor_id;sensor_type;location;lat;lon;timestamp;temperature;humidity
21622;DHT22;10973;46.706;12.340;2023-02-28T00:01:49;-2.70;99.90
21622;DHT22;10973;46.706;12.340;2023-02-28T00:04:16;-2.70;99.90
21622;DHT22;10973;46.706;12.340;2023-02-28T00:06:43;-2.60;99.90
21622;DHT22;10973;46.706;12.340;2023-02-28T00:09:11;-2.70;99.90
21622;DHT22;10973;46.706;12.340;2023-02-28T00:11:38;-2.70;99.90
21622;DHT22;10973;46.706;12.340;2023-02-28T00:14:05;-2.60;99.90
21622;DHT22;10973;46.706;12.340;2023-02-28T00:16:32;-2.70;99.90
21622;DHT22;10973;46.706;12.340;2023-02-28T00:19:00;-2.70;99.90
21622;DHT22;10973;46.706;12.340;2023-02-28T00:21:27;-2.80;99.90
21622;DHT22;10973;46.706;12.340;2023-02-28T00:23:55;-2.70;99.90
21622;DHT22;10973;46.706;12.340;2023-02-28T00:26:22;-2.80;99.90
21622;DHT22;10973;46.706;12.340;2023-02-28T00:28:51;-2.80;99.90
21622;DHT22;10973;46.706;12.340;2023-02-28T00:31:19;-2.90;99.90
21622;DHT22;10973;46.706;12.340;2023-02-28T00:33:46;-2.90;99.90
21622;DHT22;10973;46.706;12.340;2023-02-28T00:36:14;-3.00;99.90
21622;DHT22;10973;46.706;12.340;2023-02-28T00:38:41;-2.90;99.90
21622;DHT22;10973;46.706;12.340;2023-02-28T00:41:08;-3.00;99.90
21622;DHT22;10973;46.706;12.340;2023-02-28T00:43:37;-2.90;99.90
21622;DHT22;10973;46.706;12.340;2023-02-28T00:46:06;-2.90;99.90
21622;DHT22;10973;46.706;12.340;2023-02-28T00:48:34;-3.00;99.90
21622;DHT22;10973;46.706;12.340;2023-02-28T00:51:02;-3.00;99.90
21622;DHT22;10973;46.706;12.340;2023-02-28T00:53:29;-3.00;99.90
21622;DHT22;10973;46.706;12.340;2023-02-28T00:55:57;-3.10;99.90
21622;DHT22;10973;46.706;12.340;2023-02-28T00:58:24;-2.90;99.90
21622;DHT22;10973;46.706;12.340;2023-02-28T01:00:52;-3.10;99.90
21622;DHT22;10973;46.706;12.340;2023-02-28T01:03:20;-3.10;99.90
21622;DHT22;10973;46.706;12.340;2023-02-28T01:05:48;-3.00;99.90
21622;DHT22;10973;46.706;12.340;2023-02-28T01:08:15;-3.10;99.90
21622;DHT22;10973;46.706;12.340;2023-02-28T01:10:43;-3.10;99.90
21622;DHT22;10973;46.706;12.340;2023-02-28T01:13:11;-3.10;99.90
21622;DHT22;10973;46.706;12.340;2023-02-28T01:15:43;-3.00;99.90
21622;DHT22;10973;46.706;12.340;2023-02-28T01:18:15;-3.10;99.90
21622;DHT22;10973;46.706;12.340;2023-02-28T01:20:43;-3.20;99.90
21622;DHT22;10973;46.706;12.340;2023-02-28T01:23:10;-3.20;99.90
21622;DHT22;10973;46.706;12.340;2023-02-28T01:25:38;-3.30;99.90
21622;DHT22;10973;46.706;12.340;2023-02-28T01:28:06;-3.20;99.90
21622;DHT22;10973;46.706;12.340;2023-02-28T01:30:33;-3.30;99.90
21622;DHT22;10973;46.706;12.340;2023-02-28T01:33:01;-3.20;99.90
21622;DHT22;10973;46.706;12.340;2023-02-28T01:35:31;-3.20;99.90
21622;DHT22;10973;46.706;12.340;2023-02-28T01:37:59;-3.20;99.90
21622;DHT22;10973;46.706;12.340;2023-02-28T01:40:46;-3.20;99.90
21622;DHT22;10973;46.706;12.340;2023-02-28T01:46:10;-3.10;99.90
21622;DHT22;10973;46.706;12.340;2023-02-28T01:49:03;-3.20;99.90
21622;DHT22;10973;46.706;12.340;2023-02-28T01:54:07;-3.30;99.90
21622;DHT22;10973;46.706;12.340;2023-02-28T01:56:37;-3.30;99.90
21622;DHT22;10973;46.706;12.340;2023-02-28T01:59:04;-3.40;99.90
21622;DHT22;10973;46.706;12.340;2023-02-28T02:01:32;-3.40;99.90
21622;DHT22;10973;46.706;12.340;2023-02-28T02:04:02;-3.40;99.90
21622;DHT22;10973;46.706;12.340;2023-02-28T02:06:40;-3.50;99.90
21622;DHT22;10973;46.706;12.340;2023-02-28T02:09:11;-3.50;99.90
21622;DHT22;10973;46.706;12.340;2023-02-28T02:11:41;-3.50;99.90
21622;DHT22;10973;46.706;12.340;2023-02-28T02:14:48;-3.50;99.90
21622;DHT22;10973;46.706;12.340;2023-02-28T02:17:30;-3.60;99.90
21622;DHT22;10973;46.706;12.340;2023-02-28T02:38:08;-3.60;99.90
21622;DHT22;10973;46.706;12.340;2023-02-28T02:46:44;-3.60;99.90
21622;DHT22;10973;46.706;12.340;2023-02-28T02:49:25;-3.60;99.90
21622;DHT22;10973;46.706;12.340;2023-02-28T02:52:01;-3.60;99.90
21622;DHT22;10973;46.706;12.340;2023-02-28T02:54:36;-3.70;99.90
21622;DHT22;10973;46.706;12.340;2023-02-28T02:57:29;-3.70;99.90
21622;DHT22;10973;46.706;12.340;2023-02-28T03:00:20;-3.80;99.90
21622;DHT22;10973;46.706;12.340;2023-02-28T10:14:33;-0.20;99.90
21622;DHT22;10973;46.706;12.340;2023-02-28T10:17:35;-0.10;99.90
21622;DHT22;10973;46.706;12.340;2023-02-28T10:20:23;0.00;99.90
21622;DHT22;10973;46.706;12.340;2023-02-28T10:26:14;0.20;99.90
21622;DHT22;10973;46.706;12.340;2023-02-28T10:28:44;0.30;99.90
21622;DHT22;10973;46.706;12.340;2023-02-28T10:31:17;0.40;99.90
21622;DHT22;10973;46.706;12.340;2023-02-28T10:33:47;0.40;99.90
21622;DHT22;10973;46.706;12.340;2023-02-28T10:36:17;0.50;99.90
21622;DHT22;10973;46.706;12.340;2023-02-28T10:38:47;0.50;99.90
21622;DHT22;10973;46.706;12.340;2023-02-28T10:41:37;0.60;99.90
21622;DHT22;10973;46.706;12.340;2023-02-28T10:44:21;0.50;99.90
21622;DHT22;10973;46.706;12.340;2023-02-28T10:46:50;0.40;99.90
21622;DHT22;10973;46.706;12.340;2023-02-28T10:49:23;0.50;99.90
21622;DHT22;10973;46.706;12.340;2023-02-28T10:51:59;0.60;99.90
21622;DHT22;10973;46.706;12.340;2023-02-28T10:54:34;0.80;99.90
21622;DHT22;10973;46.706;12.340;2023-02-28T10:57:19;0.80;99.90
21622;DHT22;10973;46.706;12.340;2023-02-28T10:59:53;0.90;99.90
21622;DHT22;10973;46.706;12.340;2023-02-28T11:02:42;1.00;99.90
21622;DHT22;10973;46.706;12.340;2023-02-28T11:08:13;1.20;99.90
21622;DHT22;10973;46.706;12.340;2023-02-28T11:10:55;1.30;99.90
21622;DHT22;10973;46.706;12.340;2023-02-28T11:13:34;1.40;99.90
21622;DHT22;10973;46.706;12.340;2023-02-28T11:16:09;1.50;99.90
21622;DHT22;10973;46.706;12.340;2023-02-28T11:18:50;1.60;99.90
21622;DHT22;10973;46.706;12.340;2023-02-28T11:21:48;1.70;99.90
21622;DHT22;10973;46.706;12.340;2023-02-28T11:24:26;1.80;99.90
21622;DHT22;10973;46.706;12.340;2023-02-28T11:27:01;2.00;99.90
21622;DHT22;10973;46.706;12.340;2023-02-28T11:29:31;2.10;99.90
21622;DHT22;10973;46.706;12.340;2023-02-28T11:34:41;3.40;99.90
21622;DHT22;10973;46.706;12.340;2023-02-28T11:37:16;4.50;99.90
21622;DHT22;10973;46.706;12.340;2023-02-28T11:39:46;6.00;99.90
21622;DHT22;10973;46.706;12.340;2023-02-28T11:53:50;7.60;84.80
21622;DHT22;10973;46.706;12.340;2023-02-28T11:56:33;8.40;83.80
21622;DHT22;10973;46.706;12.340;2023-02-28T12:12:21;9.70;72.60
21622;DHT22;10973;46.706;12.340;2023-02-28T12:17:57;10.00;66.90
21622;DHT22;10973;46.706;12.340;2023-02-28T12:20:46;10.00;67.40
21622;DHT22;10973;46.706;12.340;2023-02-28T12:26:26;9.70;69.90
21622;DHT22;10973;46.706;12.340;2023-02-28T12:29:29;9.40;68.60
21622;DHT22;10973;46.706;12.340;2023-02-28T12:32:33;8.40;71.20
21622;DHT22;10973;46.706;12.340;2023-02-28T12:35:14;7.40;70.60
21622;DHT22;10973;46.706;12.340;2023-02-28T12:41:00;6.50;74.30
21622;DHT22;10973;46.706;12.340;2023-02-28T12:43:38;6.00;75.30
21622;DHT22;10973;46.706;12.340;2023-02-28T12:46:24;5.60;78.00
21622;DHT22;10973;46.706;12.340;2023-02-28T12:48:56;5.60;77.90
21622;DHT22;10973;46.706;12.340;2023-02-28T12:51:26;5.10;78.90
21622;DHT22;10973;46.706;12.340;2023-02-28T12:54:24;4.50;80.50
21622;DHT22;10973;46.706;12.340;2023-02-28T12:59:55;5.00;82.90
21622;DHT22;10973;46.706;12.340;2023-02-28T13:02:51;5.20;82.00
21622;DHT22;10973;46.706;12.340;2023-02-28T13:08:24;5.20;81.80
21622;DHT22;10973;46.706;12.340;2023-02-28T13:10:54;5.50;81.90
21622;DHT22;10973;46.706;12.340;2023-02-28T13:13:25;5.30;81.30
21622;DHT22;10973;46.706;12.340;2023-02-28T13:16:09;5.40;81.60
21622;DHT22;10973;46.706;12.340;2023-02-28T13:18:41;5.70;81.40
21622;DHT22;10973;46.706;12.340;2023-02-28T13:21:28;5.60;80.70
21622;DHT22;10973;46.706;12.340;2023-02-28T13:24:04;5.40;80.30
21622;DHT22;10973;46.706;12.340;2023-02-28T13:34:30;6.30;78.10
21622;DHT22;10973;46.706;12.340;2023-02-28T13:47:35;8.60;76.60
21622;DHT22;10973;46.706;12.340;2023-02-28T13:50:23;8.50;74.80
21622;DHT22;10973;46.706;12.340;2023-02-28T13:55:53;9.10;74.30
21622;DHT22;10973;46.706;12.340;2023-02-28T13:59:33;8.50;72.90
21622;DHT22;10973;46.706;12.340;2023-02-28T14:05:21;8.60;73.80
21622;DHT22;10973;46.706;12.340;2023-02-28T14:07:52;8.80;73.80
21622;DHT22;10973;46.706;12.340;2023-02-28T14:10:29;8.60;72.70
21622;DHT22;10973;46.706;12.340;2023-02-28T14:16:27;8.30;72.50
21622;DHT22;10973;46.706;12.340;2023-02-28T14:19:19;8.00;73.90
21622;DHT22;10973;46.706;12.340;2023-02-28T14:22:25;7.50;74.60
21622;DHT22;10973;46.706;12.340;2023-02-28T14:28:25;8.20;74.40
21622;DHT22;10973;46.706;12.340;2023-02-28T14:33:38;8.50;73.40
21622;DHT22;10973;46.706;12.340;2023-02-28T14:36:36;8.60;73.90
21622;DHT22;10973;46.706;12.340;2023-02-28T14:39:25;8.80;74.10
21622;DHT22;10973;46.706;12.340;2023-02-28T14:41:54;8.70;72.90
21622;DHT22;10973;46.706;12.340;2023-02-28T14:44:26;8.70;72.80
21622;DHT22;10973;46.706;12.340;2023-02-28T14:46:59;8.60;72.60
21622;DHT22;10973;46.706;12.340;2023-02-28T14:49:45;8.20;72.10
21622;DHT22;10973;46.706;12.340;2023-02-28T14:52:28;7.90;72.40
21622;DHT22;10973;46.706;12.340;2023-02-28T14:55:01;7.70;74.00
21622;DHT22;10973;46.706;12.340;2023-02-28T14:57:40;7.50;73.80
21622;DHT22;10973;46.706;12.340;2023-02-28T15:00:26;7.80;74.40
21622;DHT22;10973;46.706;12.340;2023-02-28T15:02:56;7.70;74.50
21622;DHT22;10973;46.706;12.340;2023-02-28T15:05:30;7.70;73.20
21622;DHT22;10973;46.706;12.340;2023-02-28T15:08:22;7.40;74.10
21622;DHT22;10973;46.706;12.340;2023-02-28T15:11:05;6.20;74.20
21622;DHT22;10973;46.706;12.340;2023-02-28T15:13:45;5.10;77.90
21622;DHT22;10973;46.706;12.340;2023-02-28T15:19:20;4.30;82.40
21622;DHT22;10973;46.706;12.340;2023-02-28T15:22:07;3.80;82.50
21622;DHT22;10973;46.706;12.340;2023-02-28T15:24:48;3.10;84.60
21622;DHT22;10973;46.706;12.340;2023-02-28T15:27:22;2.80;86.20
21622;DHT22;10973;46.706;12.340;2023-02-28T15:29:58;2.40;87.80
21622;DHT22;10973;46.706;12.340;2023-02-28T15:32:30;2.30;88.60
21622;DHT22;10973;46.706;12.340;2023-02-28T15:35:18;2.30;89.50
21622;DHT22;10973;46.706;12.340;2023-02-28T15:38:01;2.50;89.90
21622;DHT22;10973;46.706;12.340;2023-02-28T15:40:42;2.30;89.70
21622;DHT22;10973;46.706;12.340;2023-02-28T15:45:50;2.00;90.50
21622;DHT22;10973;46.706;12.340;2023-02-28T15:48:24;2.10;90.90
21622;DHT22;10973;46.706;12.340;2023-02-28T15:51:01;2.10;91.00
21622;DHT22;10973;46.706;12.340;2023-02-28T15:53:37;2.10;90.90
21622;DHT22;10973;46.706;12.340;2023-02-28T15:59:24;1.90;91.40
21622;DHT22;10973;46.706;12.340;2023-02-28T16:05:01;2.00;92.10
21622;DHT22;10973;46.706;12.340;2023-02-28T16:07:44;1.90;91.80
21622;DHT22;10973;46.706;12.340;2023-02-28T16:10:17;1.80;92.00
21622;DHT22;10973;46.706;12.340;2023-02-28T16:12:44;1.80;92.10
21622;DHT22;10973;46.706;12.340;2023-02-28T16:15:27;1.80;92.10
21622;DHT22;10973;46.706;12.340;2023-02-28T16:18:01;1.80;92.50
21622;DHT22;10973;46.706;12.340;2023-02-28T16:20:30;1.60;92.60
21622;DHT22;10973;46.706;12.340;2023-02-28T16:22:58;1.60;92.70
21622;DHT22;10973;46.706;12.340;2023-02-28T16:25:37;1.50;92.80
21622;DHT22;10973;46.706;12.340;2023-02-28T16:28:35;1.50;93.00
21622;DHT22;10973;46.706;12.340;2023-02-28T16:31:06;1.40;93.00
21622;DHT22;10973;46.706;12.340;2023-02-28T16:33:34;1.40;93.20
21622;DHT22;10973;46.706;12.340;2023-02-28T16:36:02;1.20;93.30
21622;DHT22;10973;46.706;12.340;2023-02-28T16:38:29;1.30;93.70
21622;DHT22;10973;46.706;12.340;2023-02-28T16:40:59;1.10;93.80
21622;DHT22;10973;46.706;12.340;2023-02-28T16:43:27;1.20;94.00
21622;DHT22;10973;46.706;12.340;2023-02-28T16:45:56;1.30;94.00
21622;DHT22;10973;46.706;12.340;2023-02-28T16:48:27;1.10;94.20
21622;DHT22;10973;46.706;12.340;2023-02-28T16:50:54;1.00;94.30
21622;DHT22;10973;46.706;12.340;2023-02-28T16:53:21;0.90;94.30
21622;DHT22;10973;46.706;12.340;2023-02-28T16:55:49;0.80;94.60
21622;DHT22;10973;46.706;12.340;2023-02-28T16:58:16;0.90;94.60
21622;DHT22;10973;46.706;12.340;2023-02-28T17:00:44;0.70;94.80
21622;DHT22;10973;46.706;12.340;2023-02-28T17:03:24;0.80;94.90
21622;DHT22;10973;46.706;12.340;2023-02-28T17:05:59;0.70;95.00
21622;DHT22;10973;46.706;12.340;2023-02-28T17:08:27;0.60;95.20
21622;DHT22;10973;46.706;12.340;2023-02-28T17:10:55;0.50;95.40
21622;DHT22;10973;46.706;12.340;2023-02-28T17:13:22;0.60;95.60
21622;DHT22;10973;46.706;12.340;2023-02-28T17:15:50;0.50;95.60
21622;DHT22;10973;46.706;12.340;2023-02-28T17:18:19;0.40;95.80
21622;DHT22;10973;46.706;12.340;2023-02-28T17:20:47;0.30;95.90
21622;DHT22;10973;46.706;12.340;2023-02-28T17:23:16;0.30;96.10
21622;DHT22;10973;46.706;12.340;2023-02-28T17:29:57;0.30;96.60
21622;DHT22;10973;46.706;12.340;2023-02-28T17:32:25;0.20;96.80
21622;DHT22;10973;46.706;12.340;2023-02-28T17:34:54;0.20;97.00
21622;DHT22;10973;46.706;12.340;2023-02-28T17:37:21;0.20;97.00
21622;DHT22;10973;46.706;12.340;2023-02-28T17:39:48;0.10;96.90
21622;DHT22;10973;46.706;12.340;2023-02-28T17:42:15;0.00;96.90
21622;DHT22;10973;46.706;12.340;2023-02-28T17:44:43;0.00;97.20
21622;DHT22;10973;46.706;12.340;2023-02-28T17:47:12;-0.10;97.30
21622;DHT22;10973;46.706;12.340;2023-02-28T17:49:39;-0.10;97.40
21622;DHT22;10973;46.706;12.340;2023-02-28T17:52:07;-0.10;97.60
21622;DHT22;10973;46.706;12.340;2023-02-28T17:54:35;-0.20;98.10
21622;DHT22;10973;46.706;12.340;2023-02-28T17:57:02;-0.20;98.00
21622;DHT22;10973;46.706;12.340;2023-02-28T17:59:30;-0.20;98.10
21622;DHT22;10973;46.706;12.340;2023-02-28T18:01:57;-0.20;98.30
21622;DHT22;10973;46.706;12.340;2023-02-28T18:04:25;-0.30;98.30
21622;DHT22;10973;46.706;12.340;2023-02-28T18:06:53;-0.40;98.40
21622;DHT22;10973;46.706;12.340;2023-02-28T18:09:22;-0.30;98.40
21622;DHT22;10973;46.706;12.340;2023-02-28T18:11:52;-0.40;98.70
21622;DHT22;10973;46.706;12.340;2023-02-28T18:14:25;-0.40;98.90
21622;DHT22;10973;46.706;12.340;2023-02-28T18:16:58;-0.40;98.90
21622;DHT22;10973;46.706;12.340;2023-02-28T18:19:25;-0.50;98.90
21622;DHT22;10973;46.706;12.340;2023-02-28T18:21:53;-0.40;98.90
21622;DHT22;10973;46.706;12.340;2023-02-28T18:24:26;-0.40;98.90
21622;DHT22;10973;46.706;12.340;2023-02-28T18:26:53;-0.50;99.10
21622;DHT22;10973;46.706;12.340;2023-02-28T18:29:23;-0.50;99.20
21622;DHT22;10973;46.706;12.340;2023-02-28T18:31:53;-0.60;99.30
21622;DHT22;10973;46.706;12.340;2023-02-28T18:34:22;-0.60;99.40
21622;DHT22;10973;46.706;12.340;2023-02-28T18:36:52;-0.60;99.40
21622;DHT22;10973;46.706;12.340;2023-02-28T18:39:20;-0.70;99.90
21622;DHT22;10973;46.706;12.340;2023-02-28T18:41:47;-0.80;99.80
21622;DHT22;10973;46.706;12.340;2023-02-28T18:44:14;-0.70;99.90
21622;DHT22;10973;46.706;12.340;2023-02-28T18:46:48;-0.80;99.90
21622;DHT22;10973;46.706;12.340;2023-02-28T18:49:16;-0.90;99.90
21622;DHT22;10973;46.706;12.340;2023-02-28T18:51:44;-0.80;99.90
21622;DHT22;10973;46.706;12.340;2023-02-28T18:54:13;-0.90;99.90
21622;DHT22;10973;46.706;12.340;2023-02-28T18:56:42;-1.00;99.90
21622;DHT22;10973;46.706;12.340;2023-02-28T18:59:10;-1.00;99.90
21622;DHT22;10973;46.706;12.340;2023-02-28T19:01:38;-1.00;99.90
21622;DHT22;10973;46.706;12.340;2023-02-28T19:04:05;-1.00;99.90
21622;DHT22;10973;46.706;12.340;2023-02-28T19:06:33;-1.00;99.90
21622;DHT22;10973;46.706;12.340;2023-02-28T19:09:02;-1.00;99.90
21622;DHT22;10973;46.706;12.340;2023-02-28T19:11:30;-1.10;99.90
21622;DHT22;10973;46.706;12.340;2023-02-28T19:13:58;-1.10;99.90
21622;DHT22;10973;46.706;12.340;2023-02-28T19:16:26;-1.10;99.90
21622;DHT22;10973;46.706;12.340;2023-02-28T19:18:54;-1.20;99.90
21622;DHT22;10973;46.706;12.340;2023-02-28T19:21:23;-1.10;99.90
21622;DHT22;10973;46.706;12.340;2023-02-28T19:23:51;-1.10;99.90
21622;DHT22;10973;46.706;12.340;2023-02-28T19:26:21;-1.20;99.90
21622;DHT22;10973;46.706;12.340;2023-02-28T19:28:50;-1.30;99.90
21622;DHT22;10973;46.706;12.340;2023-02-28T19:31:21;-1.30;99.90
21622;DHT22;10973;46.706;12.340;2023-02-28T19:33:50;-1.30;99.90
21622;DHT22;10973;46.706;12.340;2023-02-28T19:36:19;-1.40;99.90
21622;DHT22;10973;46.706;12.340;2023-02-28T19:38:48;-1.40;99.90
21622;DHT22;10973;46.706;12.340;2023-02-28T19:41:17;-1.40;99.90
21622;DHT22;10973;46.706;12.340;2023-02-28T19:43:45;-1.40;99.90
21622;DHT22;10973;46.706;12.340;2023-02-28T19:46:13;-1.50;99.90
21622;DHT22;10973;46.706;12.340;2023-02-28T19:48:41;-1.50;99.90
21622;DHT22;10973;46.706;12.340;2023-02-28T19:51:10;-1.50;99.90
21622;DHT22;10973;46.706;12.340;2023-02-28T19:53:40;-1.60;99.90
21622;DHT22;10973;46.706;12.340;2023-02-28T19:56:08;-1.00;99.90
21622;DHT22;10973;46.706;12.340;2023-02-28T19:58:37;-1.60;99.90
21622;DHT22;10973;46.706;12.340;2023-02-28T20:01:11;-1.70;99.90
21622;DHT22;10973;46.706;12.340;2023-02-28T20:03:41;-1.70;99.90
21622;DHT22;10973;46.706;12.340;2023-02-28T20:06:10;-1.70;99.90
21622;DHT22;10973;46.706;12.340;2023-02-28T20:08:38;-1.70;99.90
21622;DHT22;10973;46.706;12.340;2023-02-28T20:11:08;-1.80;99.90
21622;DHT22;10973;46.706;12.340;2023-02-28T20:13:38;-1.80;99.90
21622;DHT22;10973;46.706;12.340;2023-02-28T20:16:08;-1.90;99.90
21622;DHT22;10973;46.706;12.340;2023-02-28T20:18:38;-1.90;99.90
21622;DHT22;10973;46.706;12.340;2023-02-28T20:21:08;-1.90;99.90
21622;DHT22;10973;46.706;12.340;2023-02-28T20:23:39;-2.00;99.90
21622;DHT22;10973;46.706;12.340;2023-02-28T20:26:07;-2.10;99.90
21622;DHT22;10973;46.706;12.340;2023-02-28T20:28:36;-2.00;99.90
21622;DHT22;10973;46.706;12.340;2023-02-28T20:31:13;-2.00;99.90
21622;DHT22;10973;46.706;12.340;2023-02-28T20:33:43;-2.10;99.90
21622;DHT22;10973;46.706;12.340;2023-02-28T20:36:13;-2.10;99.90
21622;DHT22;10973;46.706;12.340;2023-02-28T20:38:41;-2.10;99.90
21622;DHT22;10973;46.706;12.340;2023-02-28T20:41:09;-2.20;99.90
21622;DHT22;10973;46.706;12.340;2023-02-28T20:43:37;-2.20;99.90
21622;DHT22;10973;46.706;12.340;2023-02-28T20:46:05;-2.20;99.90
21622;DHT22;10973;46.706;12.340;2023-02-28T20:48:33;-2.20;99.90
21622;DHT22;10973;46.706;12.340;2023-02-28T20:51:01;-2.20;99.90
21622;DHT22;10973;46.706;12.340;2023-02-28T20:53:29;-2.30;99.90
21622;DHT22;10973;46.706;12.340;2023-02-28T20:56:02;-2.40;99.90
21622;DHT22;10973;46.706;12.340;2023-02-28T20:58:36;-2.40;99.90
21622;DHT22;10973;46.706;12.340;2023-02-28T21:01:22;-2.30;99.90
21622;DHT22;10973;46.706;12.340;2023-02-28T21:03:58;-2.40;99.90
21622;DHT22;10973;46.706;12.340;2023-02-28T21:06:31;-2.50;99.90
21622;DHT22;10973;46.706;12.340;2023-02-28T21:09:11;-2.40;99.90
21622;DHT22;10973;46.706;12.340;2023-02-28T21:11:40;-2.40;99.90
21622;DHT22;10973;46.706;12.340;2023-02-28T21:14:12;-2.50;99.90
21622;DHT22;10973;46.706;12.340;2023-02-28T21:16:42;-2.60;99.90
21622;DHT22;10973;46.706;12.340;2023-02-28T21:19:09;-2.60;99.90
21622;DHT22;10973;46.706;12.340;2023-02-28T21:21:40;-2.70;99.90
21622;DHT22;10973;46.706;12.340;2023-02-28T21:24:10;-2.70;99.90
21622;DHT22;10973;46.706;12.340;2023-02-28T21:26:41;-2.70;99.90
21622;DHT22;10973;46.706;12.340;2023-02-28T21:29:11;-2.70;99.90
21622;DHT22;10973;46.706;12.340;2023-02-28T21:34:09;-2.90;99.90
21622;DHT22;10973;46.706;12.340;2023-02-28T21:36:40;-2.90;99.90
21622;DHT22;10973;46.706;12.340;2023-02-28T21:39:16;-2.90;99.90
21622;DHT22;10973;46.706;12.340;2023-02-28T21:41:48;-2.90;99.90
21622;DHT22;10973;46.706;12.340;2023-02-28T21:44:15;-2.90;99.90
21622;DHT22;10973;46.706;12.340;2023-02-28T21:46:45;-2.90;99.90
21622;DHT22;10973;46.706;12.340;2023-02-28T21:49:14;-2.90;99.90
21622;DHT22;10973;46.706;12.340;2023-02-28T21:51:42;-2.90;99.90
21622;DHT22;10973;46.706;12.340;2023-02-28T21:54:10;-3.00;99.90
21622;DHT22;10973;46.706;12.340;2023-02-28T21:56:37;-3.00;99.90
21622;DHT22;10973;46.706;12.340;2023-02-28T21:59:05;-3.00;99.90
21622;DHT22;10973;46.706;12.340;2023-02-28T22:01:36;-3.10;99.90
21622;DHT22;10973;46.706;12.340;2023-02-28T22:04:07;-3.20;99.90
21622;DHT22;10973;46.706;12.340;2023-02-28T22:06:38;-3.30;99.90
21622;DHT22;10973;46.706;12.340;2023-02-28T22:09:08;-3.30;99.90
21622;DHT22;10973;46.706;12.340;2023-02-28T22:11:37;-3.40;99.90
21622;DHT22;10973;46.706;12.340;2023-02-28T22:14:06;-3.40;99.90
21622;DHT22;10973;46.706;12.340;2023-02-28T22:16:38;-3.40;99.90
21622;DHT22;10973;46.706;12.340;2023-02-28T22:19:19;-3.40;99.90
21622;DHT22;10973;46.706;12.340;2023-02-28T22:21:48;-3.30;99.90
21622;DHT22;10973;46.706;12.340;2023-02-28T22:24:15;-3.30;99.90
21622;DHT22;10973;46.706;12.340;2023-02-28T22:26:43;-3.30;99.90
21622;DHT22;10973;46.706;12.340;2023-02-28T22:29:11;-3.30;99.90
21622;DHT22;10973;46.706;12.340;2023-02-28T22:31:39;-3.50;99.90
21622;DHT22;10973;46.706;12.340;2023-02-28T22:34:09;-3.50;99.90
21622;DHT22;10973;46.706;12.340;2023-02-28T22:36:40;-3.60;99.90
21622;DHT22;10973;46.706;12.340;2023-02-28T22:39:08;-3.60;99.90
21622;DHT22;10973;46.706;12.340;2023-02-28T22:41:37;-3.70;99.90
21622;DHT22;10973;46.706;12.340;2023-02-28T22:46:34;-3.70;99.90
21622;DHT22;10973;46.706;12.340;2023-02-28T22:49:04;-3.70;99.90
21622;DHT22;10973;46.706;12.340;2023-02-28T22:51:32;-3.70;99.90
21622;DHT22;10973;46.706;12.340;2023-02-28T22:54:01;-3.70;99.90
21622;DHT22;10973;46.706;12.340;2023-02-28T22:56:29;-3.90;99.90
21622;DHT22;10973;46.706;12.340;2023-02-28T22:58:59;-3.90;99.90
21622;DHT22;10973;46.706;12.340;2023-02-28T23:01:30;-3.80;99.90
21622;DHT22;10973;46.706;12.340;2023-02-28T23:03:59;-3.80;99.90
21622;DHT22;10973;46.706;12.340;2023-02-28T23:06:30;-3.90;99.90
21622;DHT22;10973;46.706;12.340;2023-02-28T23:09:05;-4.00;99.90
21622;DHT22;10973;46.706;12.340;2023-02-28T23:11:39;-4.00;99.90
21622;DHT22;10973;46.706;12.340;2023-02-28T23:14:10;-4.00;99.90
21622;DHT22;10973;46.706;12.340;2023-02-28T23:19:14;-4.00;99.90
21622;DHT22;10973;46.706;12.340;2023-02-28T23:21:44;-4.10;99.90
21622;DHT22;10973;46.706;12.340;2023-02-28T23:24:14;-4.00;99.90
21622;DHT22;10973;46.706;12.340;2023-02-28T23:26:46;-3.90;99.90
21622;DHT22;10973;46.706;12.340;2023-02-28T23:29:16;-3.90;99.90
21622;DHT22;10973;46.706;12.340;2023-02-28T23:31:44;-4.00;99.90
21622;DHT22;10973;46.706;12.340;2023-02-28T23:34:12;-4.00;99.90
21622;DHT22;10973;46.706;12.340;2023-02-28T23:36:40;-4.00;99.90
21622;DHT22;10973;46.706;12.340;2023-02-28T23:39:08;-3.90;99.90
21622;DHT22;10973;46.706;12.340;2023-02-28T23:41:35;-3.90;99.90
21622;DHT22;10973;46.706;12.340;2023-02-28T23:44:02;-3.90;99.90
21622;DHT22;10973;46.706;12.340;2023-02-28T23:46:29;-3.90;99.90
21622;DHT22;10973;46.706;12.340;2023-02-28T23:48:58;-4.00;99.90
21622;DHT22;10973;46.706;12.340;2023-02-28T23:51:25;-4.10;99.90
21622;DHT22;10973;46.706;12.340;2023-02-28T23:53:52;-4.10;99.90
21622;DHT22;10973;46.706;12.340;2023-02-28T23:56:21;-4.10;99.90
21622;DHT22;10973;46.706;12.340;2023-02-28T23:58:50;-4.10;99.90
